Time;durP1;ratioP1;P1;durP2;ratioP2;P2;SDS_P1;SDS_P2;PMS_P1;PMS_P2;Temp;Humidity;BMP_temperature;BMP_pressure;BME280_temperature;BME280_humidity;BME280_pressure;Samples;Min_cycle;Max_cycle;Signal;HPM_P1;HPM_P2
2021/07/17 00:01:38;;;;;;;1999.90;999.90;;;6.40;99.90;;;;;;5076222;28;20161;-46
2021/07/17 00:04:05;;;;;;;1999.90;999.90;;;6.30;99.90;;;;;;5076057;28;20555;-59
2021/07/17 00:06:33;;;;;;;1999.90;999.90;;;6.30;99.90;;;;;;5076102;28;20160;-59
2021/07/17 00:09:00;;;;;;;1999.90;999.90;;;6.30;99.90;;;;;;5075982;28;20542;-59
2021/07/17 00:11:28;;;;;;;1999.90;999.90;;;6.40;99.90;;;;;;5075932;28;20228;-59
2021/07/17 00:13:54;;;;;;;1999.90;999.90;;;6.40;99.90;;;;;;5075713;28;20212;-57
2021/07/17 00:16:26;;;;;;;1999.90;999.90;;;6.50;99.90;;;;;;5075845;28;20639;-44
2021/07/17 00:18:55;;;;;;;1999.90;999.90;;;6.50;99.90;;;;;;5076077;28;20172;-59
2021/07/17 00:21:23;;;;;;;1999.90;999.90;;;6.50;99.90;;;;;;5075773;28;20172;-45
2021/07/17 00:23:51;;;;;;;1999.90;999.90;;;6.50;99.90;;;;;;5075743;28;20199;-60
2021/07/17 00:26:18;;;;;;;1999.90;999.90;;;6.60;99.90;;;;;;5075573;28;20259;-60
2021/07/17 00:28:45;;;;;;;1999.90;999.90;;;6.50;99.90;;;;;;5075925;28;20540;-59
2021/07/17 00:31:11;;;;;;;1999.90;999.90;;;6.40;99.90;;;;;;5075639;28;20520;-48
2021/07/17 00:33:38;;;;;;;1999.90;999.90;;;6.40;99.90;;;;;;5075681;28;20227;-60
2021/07/17 00:36:05;;;;;;;1999.90;999.90;;;6.30;99.90;;;;;;5075539;28;20168;-58
2021/07/17 00:38:33;;;;;;;1999.90;999.90;;;6.30;99.90;;;;;;5075306;28;20219;-60
2021/07/17 00:41:00;;;;;;;1999.90;999.90;;;6.20;99.90;;;;;;5075349;28;20665;-59
2021/07/17 00:43:27;;;;;;;1999.90;999.90;;;6.20;99.90;;;;;;5075344;28;20167;-59
2021/07/17 00:45:54;;;;;;;1999.90;999.90;;;6.10;99.90;;;;;;5075347;28;20574;-52
2021/07/17 00:48:23;;;;;;;1999.90;999.90;;;6.10;99.90;;;;;;5075298;28;20233;-51
2021/07/17 00:50:50;;;;;;;1999.90;999.90;;;6.00;99.90;;;;;;5075157;28;20179;-46
2021/07/17 00:53:18;;;;;;;1999.90;999.90;;;5.90;99.90;;;;;;5075216;28;20178;-59
2021/07/17 00:55:49;;;;;;;1999.90;999.90;;;6.00;99.90;;;;;;5075080;28;20175;-44
2021/07/17 00:58:23;;;;;;;1999.90;999.90;;;5.90;99.90;;;;;;5074798;28;20538;-53
2021/07/17 01:00:51;;;;;;;1999.90;999.90;;;5.90;99.90;;;;;;5075154;28;20164;-56
2021/07/17 01:03:19;;;;;;;1999.90;999.90;;;5.80;99.90;;;;;;5074927;28;20177;-59
2021/07/17 01:05:50;;;;;;;1999.90;999.90;;;5.80;99.90;;;;;;5074776;28;20260;-58
2021/07/17 01:08:18;;;;;;;1999.90;999.90;;;5.70;99.90;;;;;;5075065;28;20509;-44
2021/07/17 01:10:45;;;;;;;1999.90;999.90;;;5.60;99.90;;;;;;5075033;28;20192;-56
2021/07/17 01:13:12;;;;;;;1999.90;999.90;;;5.60;99.90;;;;;;5074963;28;20172;-44
2021/07/17 01:15:38;;;;;;;1999.90;999.90;;;5.60;99.90;;;;;;5074639;28;20208;-52
2021/07/17 01:18:06;;;;;;;1999.90;999.90;;;5.70;99.90;;;;;;5074709;28;20279;-44
2021/07/17 01:20:34;;;;;;;1999.90;999.90;;;5.60;99.90;;;;;;5074667;28;20632;-48
2021/07/17 01:23:01;;;;;;;1999.90;999.90;;;5.60;99.90;;;;;;5074687;28;20168;-58
2021/07/17 01:25:29;;;;;;;1999.90;999.90;;;5.50;99.90;;;;;;5074537;28;20196;-48
2021/07/17 01:27:58;;;;;;;1999.90;999.90;;;5.60;99.90;;;;;;5074561;28;20619;-59
2021/07/17 01:30:28;;;;;;;1999.90;999.90;;;5.60;99.90;;;;;;5074443;28;20169;-59
2021/07/17 01:32:55;;;;;;;1999.90;999.90;;;5.50;99.90;;;;;;5074456;28;20192;-59
2021/07/17 01:35:22;;;;;;;1999.90;999.90;;;5.50;99.90;;;;;;5074293;28;20196;-59
2021/07/17 01:37:49;;;;;;;1999.90;999.90;;;5.30;99.90;;;;;;5074373;28;20161;-50
2021/07/17 01:40:19;;;;;;;1999.90;999.90;;;5.40;99.90;;;;;;5074472;28;20302;-59
2021/07/17 01:42:48;;;;;;;1999.90;999.90;;;5.40;99.90;;;;;;5074708;28;20149;-57
2021/07/17 01:45:29;;;;;;;1999.90;999.90;;;5.40;99.90;;;;;;5074211;28;20204;-59
2021/07/17 01:47:56;;;;;;;1999.90;999.90;;;5.50;99.90;;;;;;5074291;28;20166;-59
2021/07/17 01:50:29;;;;;;;1999.90;999.90;;;5.50;99.90;;;;;;5074089;28;20181;-44
2021/07/17 01:52:56;;;;;;;1999.90;999.90;;;5.60;99.90;;;;;;5073968;28;20196;-59
2021/07/17 01:55:23;;;;;;;1999.90;999.90;;;5.50;99.90;;;;;;5073926;28;20717;-59
2021/07/17 01:57:50;;;;;;;1999.90;999.90;;;5.40;99.90;;;;;;5073894;28;20194;-44
2021/07/17 02:00:19;;;;;;;1999.90;999.90;;;5.40;99.90;;;;;;5073902;28;20172;-60
2021/07/17 02:02:47;;;;;;;1999.90;999.90;;;5.30;99.90;;;;;;5073990;28;20168;-59
2021/07/17 02:05:15;;;;;;;1999.90;999.90;;;5.40;99.90;;;;;;5074020;28;20208;-46
2021/07/17 02:07:42;;;;;;;1999.90;999.90;;;5.40;99.90;;;;;;5073766;28;20527;-50
2021/07/17 02:10:12;;;;;;;1999.90;999.90;;;5.30;99.90;;;;;;5072955;28;20226;-52
2021/07/17 02:12:54;;;;;;;1999.90;999.90;;;5.30;99.90;;;;;;5073654;28;20192;-59
2021/07/17 02:15:21;;;;;;;1999.90;999.90;;;5.40;99.90;;;;;;5073543;28;20697;-44
2021/07/17 02:17:49;;;;;;;1999.90;999.90;;;5.30;99.90;;;;;;5073832;28;20200;-59
2021/07/17 02:20:16;;;;;;;1999.90;999.90;;;5.30;99.90;;;;;;5073555;28;20633;-59
2021/07/17 02:22:43;;;;;;;1999.90;999.90;;;5.30;99.90;;;;;;5073504;28;20175;-59
2021/07/17 02:25:10;;;;;;;1999.90;999.90;;;5.40;99.90;;;;;;5073222;28;20209;-55
2021/07/17 02:27:37;;;;;;;1999.90;999.90;;;5.30;99.90;;;;;;5073451;28;20218;-59
2021/07/17 02:30:08;;;;;;;1999.90;999.90;;;5.30;99.90;;;;;;5073346;28;20177;-50
2021/07/17 02:32:34;;;;;;;1999.90;999.90;;;5.20;99.90;;;;;;5073351;28;20164;-59
2021/07/17 02:35:03;;;;;;;1999.90;999.90;;;5.20;99.90;;;;;;5073274;28;20180;-45
2021/07/17 02:37:30;;;;;;;1999.90;999.90;;;5.20;99.90;;;;;;5073218;28;20165;-60
2021/07/17 02:39:57;;;;;;;1999.90;999.90;;;5.10;99.90;;;;;;5073243;28;20714;-47
2021/07/17 02:42:24;;;;;;;1999.90;999.90;;;5.10;99.90;;;;;;5073247;28;20168;-58
2021/07/17 02:44:51;;;;;;;1999.90;999.90;;;5.20;99.90;;;;;;5073208;28;20232;-59
2021/07/17 02:47:18;;;;;;;1999.90;999.90;;;5.20;99.90;;;;;;5073211;28;20179;-59
2021/07/17 02:49:45;;;;;;;1999.90;999.90;;;5.30;99.90;;;;;;5073121;28;20172;-57
2021/07/17 02:52:12;;;;;;;1999.90;999.90;;;5.30;99.90;;;;;;5073084;28;20160;-59
2021/07/17 02:54:39;;;;;;;1999.90;999.90;;;5.10;99.90;;;;;;5073004;28;20171;-54
2021/07/17 02:57:06;;;;;;;1999.90;999.90;;;5.10;99.90;;;;;;5073036;28;20160;-44
2021/07/17 02:59:32;;;;;;;1999.90;999.90;;;5.00;99.90;;;;;;5072969;28;20237;-47
2021/07/17 03:01:59;;;;;;;1999.90;999.90;;;5.00;99.90;;;;;;5072909;28;20165;-57
2021/07/17 03:04:26;;;;;;;1999.90;999.90;;;5.00;99.90;;;;;;5072873;28;20205;-59
2021/07/17 03:06:53;;;;;;;1999.90;999.90;;;4.90;99.90;;;;;;5073011;28;20165;-59
2021/07/17 03:09:20;;;;;;;1999.90;999.90;;;5.00;99.90;;;;;;5073016;28;20250;-59
2021/07/17 03:11:47;;;;;;;1999.90;999.90;;;4.90;99.90;;;;;;5072888;28;20629;-49
2021/07/17 03:14:14;;;;;;;1999.90;999.90;;;4.80;99.90;;;;;;5072605;28;20265;-59
2021/07/17 03:16:42;;;;;;;1999.90;999.90;;;4.90;99.90;;;;;;5072841;28;20176;-59
2021/07/17 03:19:09;;;;;;;1999.90;999.90;;;5.00;99.90;;;;;;5072690;28;20180;-58
2021/07/17 03:21:36;;;;;;;1999.90;999.90;;;5.00;99.90;;;;;;5076033;28;20541;-59
2021/07/17 03:24:03;;;;;;;1999.90;999.90;;;4.90;99.90;;;;;;5076766;28;20195;-59
2021/07/17 03:26:30;;;;;;;1999.90;999.90;;;4.80;99.90;;;;;;5076855;28;20168;-50
2021/07/17 03:28:57;;;;;;;1999.90;999.90;;;4.80;99.90;;;;;;5076815;28;20192;-57
2021/07/17 03:31:30;;;;;;;1999.90;999.90;;;4.80;99.90;;;;;;5076804;28;20180;-59
2021/07/17 03:33:58;;;;;;;1999.90;999.90;;;4.70;99.90;;;;;;5076859;28;20167;-52
2021/07/17 03:36:25;;;;;;;1999.90;999.90;;;4.70;99.90;;;;;;5076786;28;20170;-48
2021/07/17 03:38:52;;;;;;;1999.90;999.90;;;4.60;99.90;;;;;;5076872;28;20177;-44
2021/07/17 03:41:19;;;;;;;1999.90;999.90;;;4.60;99.90;;;;;;5076551;28;20251;-46
2021/07/17 03:43:47;;;;;;;1999.90;999.90;;;4.60;99.90;;;;;;5076429;28;20624;-59
2021/07/17 03:46:14;;;;;;;1999.90;999.90;;;4.50;99.90;;;;;;5076526;28;20172;-59
2021/07/17 03:48:41;;;;;;;1999.90;999.90;;;4.50;99.90;;;;;;5076359;28;20179;-44
2021/07/17 03:51:09;;;;;;;1999.90;999.90;;;4.50;99.90;;;;;;5076398;28;20172;-44
2021/07/17 03:53:36;;;;;;;1999.90;999.90;;;4.60;99.90;;;;;;5076261;28;20180;-58
2021/07/17 03:56:03;;;;;;;1999.90;999.90;;;4.50;99.90;;;;;;5076271;28;20179;-45
2021/07/17 03:58:30;;;;;;;1999.90;999.90;;;4.40;99.90;;;;;;5076252;28;20332;-53
2021/07/17 04:00:57;;;;;;;1999.90;999.90;;;4.30;99.90;;;;;;5076248;28;20165;-59
2021/07/17 04:03:24;;;;;;;1999.90;999.90;;;4.20;99.90;;;;;;5076224;28;20632;-58
2021/07/17 04:05:52;;;;;;;1999.90;999.90;;;4.30;99.90;;;;;;5075962;28;20200;-51
2021/07/17 04:08:19;;;;;;;1999.90;999.90;;;4.30;99.90;;;;;;5076062;28;20503;-51
2021/07/17 04:10:45;;;;;;;1999.90;999.90;;;4.30;99.90;;;;;;5076025;28;20172;-59
2021/07/17 04:13:12;;;;;;;1999.90;999.90;;;4.30;99.90;;;;;;5075979;28;20171;-47
2021/07/17 04:15:39;;;;;;;1999.90;999.90;;;4.20;99.90;;;;;;5075664;28;20303;-59
2021/07/17 04:18:06;;;;;;;1999.90;999.90;;;4.20;99.90;;;;;;5075824;28;20192;-58
2021/07/17 04:20:33;;;;;;;1999.90;999.90;;;4.20;99.90;;;;;;5075833;28;20164;-44
2021/07/17 04:23:00;;;;;;;1999.90;999.90;;;4.20;99.90;;;;;;5075865;28;20200;-45
2021/07/17 04:25:27;;;;;;;1999.90;999.90;;;4.20;99.90;;;;;;5075764;28;20202;-59
2021/07/17 04:27:54;;;;;;;1999.90;999.90;;;4.20;99.90;;;;;;5075714;28;20164;-46
2021/07/17 04:30:20;;;;;;;1999.90;999.90;;;4.30;99.90;;;;;;5075608;28;20165;-59
2021/07/17 04:32:47;;;;;;;1999.90;999.90;;;4.20;99.90;;;;;;5074890;28;20173;-59
2021/07/17 04:35:14;;;;;;;1999.90;999.90;;;4.20;99.90;;;;;;5075491;28;20163;-59
2021/07/17 04:37:41;;;;;;;1999.90;999.90;;;4.20;99.90;;;;;;5075532;28;20180;-51
2021/07/17 04:40:08;;;;;;;1999.90;999.90;;;4.10;99.90;;;;;;5075489;28;20179;-59
2021/07/17 04:42:35;;;;;;;1999.90;999.90;;;4.20;99.90;;;;;;5075406;28;20227;-56
2021/07/17 04:45:02;;;;;;;1999.90;999.90;;;4.20;99.90;;;;;;5075435;28;20206;-59
2021/07/17 04:47:29;;;;;;;1999.90;999.90;;;4.10;99.90;;;;;;5075417;28;20290;-44
2021/07/17 04:50:02;;;;;;;1999.90;999.90;;;4.20;99.90;;;;;;5075336;28;20638;-59
2021/07/17 04:52:29;;;;;;;1999.90;999.90;;;4.20;99.90;;;;;;5075292;28;20161;-49
2021/07/17 04:54:57;;;;;;;1999.90;999.90;;;4.40;99.90;;;;;;5075162;28;20251;-58
2021/07/17 04:57:23;;;;;;;1999.90;999.90;;;4.30;99.90;;;;;;5075257;28;20700;-59
2021/07/17 04:59:50;;;;;;;1999.90;999.90;;;4.30;99.90;;;;;;5075098;28;20225;-44
2021/07/17 05:02:17;;;;;;;1999.90;999.90;;;4.30;99.90;;;;;;5075014;28;20258;-55
2021/07/17 05:04:44;;;;;;;1999.90;999.90;;;4.30;99.90;;;;;;5074954;28;20755;-59
2021/07/17 05:07:11;;;;;;;1999.90;999.90;;;4.30;99.90;;;;;;5074979;28;20232;-50
2021/07/17 05:09:38;;;;;;;1999.90;999.90;;;4.30;99.90;;;;;;5074649;28;20175;-58
2021/07/17 05:12:05;;;;;;;1999.90;999.90;;;4.30;99.90;;;;;;5074849;28;20203;-43
2021/07/17 05:14:32;;;;;;;1999.90;999.90;;;4.20;99.90;;;;;;5074801;28;20258;-43
2021/07/17 05:16:59;;;;;;;1999.90;999.90;;;4.00;99.90;;;;;;5074727;28;20175;-49
2021/07/17 05:19:26;;;;;;;1999.90;999.90;;;4.00;99.90;;;;;;5074730;28;20633;-58
2021/07/17 05:21:52;;;;;;;1999.90;999.90;;;4.00;99.90;;;;;;5074680;28;20264;-59
2021/07/17 05:24:19;;;;;;;1999.90;999.90;;;4.00;99.90;;;;;;5074508;28;20677;-57
2021/07/17 05:26:47;;;;;;;1999.90;999.90;;;4.00;99.90;;;;;;5074636;28;20195;-45
2021/07/17 05:29:13;;;;;;;1999.90;999.90;;;4.00;99.90;;;;;;5074547;28;20169;-59
2021/07/17 05:31:40;;;;;;;1999.90;999.90;;;4.10;99.90;;;;;;5074528;28;20169;-59
2021/07/17 05:34:07;;;;;;;1999.90;999.90;;;4.40;99.90;;;;;;5074492;28;20164;-57
2021/07/17 05:36:34;;;;;;;1999.90;999.90;;;4.50;99.90;;;;;;5074477;28;20210;-58
2021/07/17 05:39:01;;;;;;;1999.90;999.90;;;4.50;99.90;;;;;;5074389;28;20174;-59
2021/07/17 05:41:27;;;;;;;1999.90;999.90;;;4.60;99.90;;;;;;5074171;28;20190;-59
2021/07/17 05:43:54;;;;;;;1999.90;999.90;;;4.60;99.90;;;;;;5073126;28;20167;-44
2021/07/17 05:46:21;;;;;;;1999.90;999.90;;;4.60;99.90;;;;;;5074216;28;20184;-45
2021/07/17 05:48:48;;;;;;;1999.90;999.90;;;4.70;99.90;;;;;;5074076;28;20305;-52
2021/07/17 05:51:15;;;;;;;1999.90;999.90;;;4.80;99.90;;;;;;5074009;28;20247;-43
2021/07/17 05:53:42;;;;;;;1999.90;999.90;;;4.70;99.90;;;;;;5073978;28;20182;-44
2021/07/17 05:56:09;;;;;;;1999.90;999.90;;;4.50;99.90;;;;;;5074217;28;20187;-43
2021/07/17 05:58:36;;;;;;;1999.90;999.90;;;4.40;99.90;;;;;;5074028;28;20176;-59
2021/07/17 06:01:03;;;;;;;1999.90;999.90;;;4.30;99.90;;;;;;5073811;28;20205;-48
2021/07/17 06:03:30;;;;;;;1999.90;999.90;;;4.20;99.90;;;;;;5073892;28;20261;-59
2021/07/17 06:05:57;;;;;;;1999.90;999.90;;;4.10;99.90;;;;;;5073706;28;20222;-59
2021/07/17 06:08:24;;;;;;;1999.90;999.90;;;4.10;99.90;;;;;;5073686;28;20274;-43
2021/07/17 06:10:51;;;;;;;1999.90;999.90;;;4.10;99.90;;;;;;5073601;28;20183;-53
2021/07/17 06:13:18;;;;;;;1999.90;999.90;;;4.10;99.90;;;;;;5073589;28;20191;-57
2021/07/17 06:15:45;;;;;;;1999.90;999.90;;;4.10;99.90;;;;;;5033679;28;20186;-57
2021/07/17 06:18:12;;;;;;;1999.90;999.90;;;4.20;99.90;;;;;;5033577;28;20205;-47
2021/07/17 06:20:39;;;;;;;1999.90;999.90;;;4.30;99.90;;;;;;5033718;28;20261;-58
2021/07/17 06:23:06;;;;;;;1999.90;999.90;;;4.30;99.90;;;;;;5033746;28;20228;-53
2021/07/17 06:25:33;;;;;;;1999.90;999.90;;;4.30;99.90;;;;;;5033409;28;20300;-57
2021/07/17 06:27:59;;;;;;;1999.90;999.90;;;4.50;99.90;;;;;;5033518;28;20264;-58
2021/07/17 06:30:26;;;;;;;1999.90;999.90;;;4.50;99.90;;;;;;5033443;28;20187;-58
2021/07/17 06:32:53;;;;;;;1999.90;999.90;;;4.50;99.90;;;;;;5033438;28;20617;-58
2021/07/17 06:35:20;;;;;;;1999.90;999.90;;;4.60;99.90;;;;;;5033325;28;20177;-57
2021/07/17 06:37:47;;;;;;;1999.90;999.90;;;4.60;99.90;;;;;;5033111;28;20251;-54
2021/07/17 06:40:16;;;;;;;1999.90;999.90;;;4.70;99.90;;;;;;5032987;28;20181;-44
2021/07/17 06:42:48;;;;;;;1999.90;999.90;;;4.80;99.90;;;;;;5033077;28;20579;-44
2021/07/17 06:45:17;;;;;;;1999.90;999.90;;;4.90;99.90;;;;;;5032965;28;20291;-57
2021/07/17 06:47:45;;;;;;;1999.90;999.90;;;5.10;99.90;;;;;;5032896;28;20223;-57
2021/07/17 06:50:14;;;;;;;1999.90;999.90;;;5.20;99.90;;;;;;5033031;28;20174;-46
2021/07/17 06:52:41;;;;;;;1999.90;999.90;;;5.20;99.90;;;;;;5032922;28;20169;-44
2021/07/17 06:55:09;;;;;;;1999.90;999.90;;;5.40;99.90;;;;;;5032612;28;20162;-54
2021/07/17 06:57:38;;;;;;;1999.90;999.90;;;5.50;99.90;;;;;;5032767;28;20162;-51
2021/07/17 07:00:10;;;;;;;1999.90;999.90;;;5.50;99.90;;;;;;5032805;28;20166;-44
2021/07/17 07:02:38;;;;;;;1999.90;999.90;;;5.60;99.90;;;;;;5032793;28;20222;-51
2021/07/17 07:05:06;;;;;;;1999.90;999.90;;;5.70;99.90;;;;;;5032652;28;20208;-54
2021/07/17 07:07:34;;;;;;;1999.90;999.90;;;5.80;99.90;;;;;;5032735;28;20170;-45
2021/07/17 07:10:03;;;;;;;1999.90;999.90;;;5.80;99.90;;;;;;5032644;28;20165;-57
2021/07/17 07:12:29;;;;;;;1999.90;999.90;;;5.80;99.90;;;;;;5032675;28;20197;-57
2021/07/17 07:14:56;;;;;;;1999.90;999.90;;;5.90;99.90;;;;;;5059423;28;20228;-54
2021/07/17 07:17:25;;;;;;;1999.90;999.90;;;6.00;99.90;;;;;;5072466;28;20198;-57
2021/07/17 07:19:52;;;;;;;1999.90;999.90;;;6.10;99.90;;;;;;5072656;28;20638;-45
2021/07/17 07:22:19;;;;;;;1999.90;999.90;;;6.30;99.90;;;;;;5072475;28;20602;-45
2021/07/17 07:24:46;;;;;;;1999.90;999.90;;;6.40;99.90;;;;;;5072299;28;20230;-54
2021/07/17 07:27:12;;;;;;;1999.90;999.90;;;6.60;99.90;;;;;;5072584;28;20534;-46
2021/07/17 07:29:41;;;;;;;1999.90;999.90;;;6.70;99.90;;;;;;5072696;28;20643;-47
2021/07/17 07:32:08;;;;;;;1999.90;999.90;;;6.90;99.90;;;;;;5072408;28;20251;-51
2021/07/17 07:34:35;;;;;;;1999.90;999.90;;;7.00;99.90;;;;;;5072443;28;20203;-56
2021/07/17 07:37:02;;;;;;;1999.90;999.90;;;7.10;99.90;;;;;;5072421;28;20712;-54
2021/07/17 07:39:29;;;;;;;1999.90;999.90;;;7.30;99.90;;;;;;5072425;28;20645;-46
2021/07/17 07:41:56;;;;;;;1999.90;999.90;;;7.30;99.90;;;;;;5072355;28;20163;-56
2021/07/17 07:44:24;;;;;;;1999.90;999.90;;;7.40;99.90;;;;;;5072215;28;20649;-46
2021/07/17 07:46:53;;;;;;;1999.90;999.90;;;7.50;99.90;;;;;;5072210;28;20199;-48
2021/07/17 07:49:20;;;;;;;1999.90;999.90;;;7.70;99.90;;;;;;5072174;28;20184;-47
2021/07/17 07:51:47;;;;;;;1999.90;999.90;;;7.90;99.90;;;;;;5072185;28;20199;-47
2021/07/17 07:54:14;;;;;;;1999.90;999.90;;;8.10;99.90;;;;;;5072250;28;20180;-47
2021/07/17 07:56:41;;;;;;;1999.90;999.90;;;8.30;99.90;;;;;;5072011;28;20168;-53
2021/07/17 07:59:08;;;;;;;1999.90;999.90;;;8.40;99.90;;;;;;5072196;28;20168;-58
2021/07/17 08:01:35;;;;;;;1999.90;999.90;;;8.60;99.90;;;;;;5072117;28;20159;-47
2021/07/17 08:04:02;;;;;;;1999.90;999.90;;;8.70;99.90;;;;;;5072041;28;20172;-48
2021/07/17 08:06:29;;;;;;;1999.90;999.90;;;8.80;99.90;;;;;;5072113;28;20250;-57
2021/07/17 08:08:55;;;;;;;1999.90;999.90;;;9.00;99.90;;;;;;5075440;28;20164;-57
2021/07/17 08:11:22;;;;;;;1999.90;999.90;;;9.30;99.90;;;;;;5075711;28;20181;-48
2021/07/17 08:13:49;;;;;;;1999.90;999.90;;;9.40;99.90;;;;;;5075471;28;20204;-46
2021/07/17 08:16:16;;;;;;;1999.90;999.90;;;9.50;99.90;;;;;;5075843;28;20168;-49
2021/07/17 08:18:43;;;;;;;1999.90;999.90;;;9.80;99.90;;;;;;5075512;28;20638;-57
2021/07/17 08:21:10;;;;;;;1999.90;999.90;;;9.90;99.90;;;;;;5075526;28;20176;-56
2021/07/17 08:23:36;;;;;;;1999.90;999.90;;;10.00;99.90;;;;;;5075511;28;20171;-47
2021/07/17 08:26:03;;;;;;;1999.90;999.90;;;10.10;99.90;;;;;;5075360;28;20204;-48
2021/07/17 08:28:30;;;;;;;1999.90;999.90;;;10.30;99.90;;;;;;5075230;28;20233;-46
2021/07/17 08:30:57;;;;;;;1999.90;999.90;;;10.50;99.90;;;;;;5075401;28;20196;-46
2021/07/17 08:33:24;;;;;;;1999.90;999.90;;;10.70;99.90;;;;;;5075634;28;20523;-55
2021/07/17 08:35:51;;;;;;;1999.90;999.90;;;10.90;99.90;;;;;;5075257;28;20304;-48
2021/07/17 08:38:18;;;;;;;1999.90;999.90;;;11.10;99.90;;;;;;5075360;28;20172;-49
2021/07/17 08:40:52;;;;;;;1999.90;999.90;;;11.20;99.90;;;;;;5075167;28;20252;-58
2021/07/17 08:43:20;;;;;;;1999.90;999.90;;;11.40;99.90;;;;;;5075194;28;20168;-57
2021/07/17 08:45:47;;;;;;;1999.90;999.90;;;11.50;99.90;;;;;;5075126;28;20250;-46
2021/07/17 08:48:16;;;;;;;1999.90;999.90;;;11.60;98.70;;;;;;5074934;28;20180;-58
2021/07/17 08:50:43;;;;;;;1999.90;999.90;;;11.70;99.00;;;;;;5074925;28;20643;-49
2021/07/17 08:53:10;;;;;;;1999.90;999.90;;;11.80;99.60;;;;;;5075055;28;20529;-49
2021/07/17 08:55:37;;;;;;;1999.90;999.90;;;12.00;99.00;;;;;;5075054;28;20164;-51
2021/07/17 08:58:05;;;;;;;1999.90;999.90;;;12.10;99.70;;;;;;5075027;28;20168;-47
2021/07/17 09:00:41;;;;;;;1999.90;999.90;;;12.20;98.40;;;;;;5074850;28;20191;-47
2021/07/17 09:03:12;;;;;;;1999.90;999.90;;;12.30;96.50;;;;;;5074745;28;20156;-47
2021/07/17 09:05:44;;;;;;;1999.90;999.90;;;12.40;99.50;;;;;;5074593;28;20196;-58
2021/07/17 09:08:17;;;;;;;1999.90;999.90;;;12.50;99.90;;;;;;5074571;28;20623;-48
2021/07/17 09:10:47;;;;;;;1999.90;999.90;;;12.60;99.90;;;;;;5074661;28;20535;-46
2021/07/17 09:13:18;;;;;;;1999.90;999.90;;;12.60;99.90;;;;;;5074597;28;20183;-46
2021/07/17 09:15:55;;;;;;;1999.90;999.90;;;12.80;99.90;;;;;;5074598;28;20685;-51
2021/07/17 09:18:26;;;;;;;1999.90;999.90;;;12.90;99.90;;;;;;5074323;28;20620;-53
2021/07/17 09:21:02;;;;;;;1999.90;999.90;;;13.00;98.30;;;;;;5074510;28;20222;-47
2021/07/17 09:23:32;;;;;;;1999.90;999.90;;;13.10;99.90;;;;;;5074333;28;20176;-57
2021/07/17 09:26:01;;;;;;;1999.90;999.90;;;13.30;97.40;;;;;;5074172;28;20627;-47
2021/07/17 09:28:30;;;;;;;1999.90;999.90;;;13.40;93.10;;;;;;5074183;28;20202;-47
2021/07/17 09:31:02;;;;;;;1999.90;999.90;;;13.60;93.40;;;;;;5074109;28;20258;-50
2021/07/17 09:33:29;;;;;;;1999.90;999.90;;;13.70;90.90;;;;;;5074487;28;20153;-54
2021/07/17 09:35:58;;;;;;;1999.90;999.90;;;13.90;91.50;;;;;;5074290;28;20226;-50
2021/07/17 09:38:32;;;;;;;1999.90;999.90;;;14.10;90.10;;;;;;5074044;28;20259;-55
2021/07/17 09:41:03;;;;;;;1999.90;999.90;;;14.30;90.50;;;;;;5074187;28;20164;-57
2021/07/17 09:43:59;;;;;;;1999.90;999.90;;;14.40;91.20;;;;;;5073934;28;20555;-58
2021/07/17 09:46:29;;;;;;;1999.90;999.90;;;14.50;90.10;;;;;;5073894;28;20184;-61
2021/07/17 09:49:03;;;;;;;1999.90;999.90;;;14.60;90.50;;;;;;5073938;28;20516;-57
2021/07/17 09:51:34;;;;;;;1999.90;999.90;;;14.70;88.80;;;;;;5073765;28;20248;-59
2021/07/17 09:54:08;;;;;;;1999.90;999.90;;;14.90;85.30;;;;;;5073784;28;20222;-58
2021/07/17 09:56:38;;;;;;;1999.90;999.90;;;15.00;86.60;;;;;;5074004;28;20160;-58
2021/07/17 09:59:07;;;;;;;1999.90;999.90;;;15.10;80.80;;;;;;5073855;28;20177;-51
2021/07/17 10:01:39;;;;;;;1999.90;999.90;;;15.20;75.70;;;;;;5073664;28;20601;-58
2021/07/17 10:04:11;;;;;;;1999.90;999.90;;;15.30;73.00;;;;;;5073927;28;20263;-53
2021/07/17 10:06:44;;;;;;;1999.90;999.90;;;15.30;74.40;;;;;;5073386;28;20184;-54
2021/07/17 10:09:14;;;;;;;1999.90;999.90;;;15.50;76.70;;;;;;5073468;28;20520;-47
2021/07/17 10:11:43;;;;;;;1999.90;999.90;;;15.60;78.50;;;;;;5073507;28;20642;-56
2021/07/17 10:14:18;;;;;;;1999.90;999.90;;;15.80;71.60;;;;;;5073170;28;20245;-56
2021/07/17 10:16:49;;;;;;;1999.90;999.90;;;15.90;71.60;;;;;;5073346;28;20172;-51
2021/07/17 10:19:19;;;;;;;1999.90;999.90;;;16.00;76.00;;;;;;5073308;28;20245;-49
2021/07/17 10:21:47;;;;;;;1999.90;999.90;;;16.10;69.60;;;;;;5073088;28;20631;-47
2021/07/17 10:24:15;;;;;;;1999.90;999.90;;;16.40;67.50;;;;;;5073022;28;20181;-48
2021/07/17 10:26:43;;;;;;;1999.90;999.90;;;16.50;65.70;;;;;;5072902;28;20171;-55
2021/07/17 10:29:13;;;;;;;1999.90;999.90;;;16.50;68.30;;;;;;5072629;28;20176;-52
2021/07/17 10:31:42;;;;;;;1999.90;999.90;;;16.60;67.30;;;;;;5072276;28;20161;-49
2021/07/17 10:34:09;;;;;;;1999.90;999.90;;;16.70;64.50;;;;;;5072865;28;20194;-47
2021/07/17 10:37:06;;;;;;;1999.90;999.90;;;17.00;62.10;;;;;;5072772;28;20171;-53
2021/07/17 10:39:43;;;;;;;1999.90;999.90;;;17.20;59.80;;;;;;5064090;28;20181;-53
2021/07/17 10:42:13;;;;;;;1999.90;999.90;;;17.20;64.80;;;;;;5072745;28;20148;-48
2021/07/17 10:44:41;;;;;;;1999.90;999.90;;;17.30;59.00;;;;;;5072572;28;20196;-48
2021/07/17 10:47:09;;;;;;;1999.90;999.90;;;17.30;60.50;;;;;;5072519;28;20176;-58
2021/07/17 10:49:42;;;;;;;1999.90;999.90;;;17.50;58.80;;;;;;5072455;28;20267;-57
2021/07/17 10:52:09;;;;;;;1999.90;999.90;;;17.60;56.90;;;;;;5072574;28;20524;-49
2021/07/17 10:54:37;;;;;;;1999.90;999.90;;;17.70;57.10;;;;;;5072507;28;20171;-49
2021/07/17 10:57:05;;;;;;;1999.90;999.90;;;17.80;55.80;;;;;;5072784;28;20180;-48
2021/07/17 10:59:32;;;;;;;1999.90;999.90;;;17.90;57.30;;;;;;5072650;28;20217;-51
2021/07/17 11:02:04;;;;;;;1999.90;999.90;;;18.10;58.10;;;;;;5072740;28;20622;-51
2021/07/17 11:04:41;;;;;;;1999.90;999.90;;;18.10;57.10;;;;;;5072457;28;20559;-48
2021/07/17 11:07:16;;;;;;;1999.90;999.90;;;18.10;57.70;;;;;;5072622;28;20160;-58
2021/07/17 11:09:57;;;;;;;1999.90;999.90;;;18.20;58.70;;;;;;5072479;28;20179;-51
2021/07/17 11:12:32;;;;;;;1999.90;999.90;;;18.30;58.90;;;;;;5072392;28;20193;-54
2021/07/17 11:15:11;;;;;;;1999.90;999.90;;;18.50;58.50;;;;;;5072199;28;20230;-58
2021/07/17 11:17:46;;;;;;;1999.90;999.90;;;18.60;54.80;;;;;;5072167;28;20175;-52
2021/07/17 11:20:37;;;;;;;1999.90;999.90;;;18.70;53.40;;;;;;5072455;28;20167;-55
2021/07/17 11:23:08;;;;;;;1999.90;999.90;;;18.80;54.00;;;;;;5072438;28;20610;-51
2021/07/17 11:25:36;;;;;;;1999.90;999.90;;;18.90;54.20;;;;;;5072447;28;20211;-50
2021/07/17 11:28:03;;;;;;;1999.90;999.90;;;18.90;55.10;;;;;;5072526;28;20164;-56
2021/07/17 11:30:34;;;;;;;1999.90;999.90;;;18.80;51.70;;;;;;5072599;28;20221;-52
2021/07/17 11:33:07;;;;;;;1999.90;999.90;;;18.80;52.80;;;;;;5072336;28;20173;-51
2021/07/17 11:35:35;;;;;;;1999.90;999.90;;;18.80;54.40;;;;;;5072222;28;20168;-56
2021/07/17 11:38:05;;;;;;;1999.90;999.90;;;18.90;54.30;;;;;;5072673;28;20180;-49
2021/07/17 11:40:33;;;;;;;1999.90;999.90;;;19.00;56.30;;;;;;5070936;28;20172;-57
2021/07/17 11:43:03;;;;;;;1999.90;999.90;;;19.10;53.60;;;;;;5075857;28;20634;-59
2021/07/17 11:45:30;;;;;;;1999.90;999.90;;;19.10;53.40;;;;;;5075917;28;20574;-52
2021/07/17 11:48:11;;;;;;;1999.90;999.90;;;19.30;53.70;;;;;;5075990;28;20222;-58
2021/07/17 11:50:40;;;;;;;1999.90;999.90;;;19.40;53.90;;;;;;5076154;28;20164;-58
2021/07/17 11:53:18;;;;;;;1999.90;999.90;;;19.40;53.50;;;;;;5076008;28;20528;-54
2021/07/17 11:55:57;;;;;;;1999.90;999.90;;;19.60;50.80;;;;;;5076022;28;20192;-57
2021/07/17 11:58:23;;;;;;;1999.90;999.90;;;19.70;51.20;;;;;;5076028;28;20267;-59
2021/07/17 12:01:07;;;;;;;1999.90;999.90;;;19.60;53.00;;;;;;5075810;28;20172;-48
2021/07/17 12:03:34;;;;;;;1999.90;999.90;;;19.70;49.30;;;;;;5075811;28;20161;-49
2021/07/17 12:06:01;;;;;;;1999.90;999.90;;;19.80;51.30;;;;;;5075461;28;20200;-49
2021/07/17 12:08:27;;;;;;;1999.90;999.90;;;19.80;51.80;;;;;;5075588;28;20513;-49
2021/07/17 12:10:54;;;;;;;1999.90;999.90;;;19.90;50.40;;;;;;5075646;28;20168;-49
2021/07/17 12:13:22;;;;;;;1999.90;999.90;;;19.90;51.30;;;;;;5075398;28;20180;-58